Time;durP1;ratioP1;P1;durP2;ratioP2;P2;SDS_P1;SDS_P2;PMS_P1;PMS_P2;Temp;Humidity;BMP_temperature;BMP_pressure;BME280_temperature;BME280_humidity;BME280_pressure;Samples;Min_cycle;Max_cycle;Signal;HPM_P1;HPM_P2
2022/08/17 00:01:16;;;;;;;0.10;0.10;;;;;;;24.62;52.56;100535.53;5093453;28;20537;-36
2022/08/17 00:03:47;;;;;;;0.10;0.10;;;;;;;24.62;52.59;100530.78;5091758;28;20523;-36
2022/08/17 00:06:14;;;;;;;;;;;;;;;24.62;52.64;100533.56;5107991;28;20450;-36
2022/08/17 00:08:44;;;;;;;0.10;0.10;;;;;;;24.61;52.62;100531.94;5108977;28;19984;-36
2022/08/17 00:11:13;;;;;;;0.10;0.10;;;;;;;24.61;52.68;100533.88;5111550;28;20067;-37
2022/08/17 00:13:43;;;;;;;0.10;0.10;;;;;;;24.61;52.68;100533.88;5074061;28;20134;-36
2022/08/17 00:16:13;;;;;;;0.10;0.10;;;;;;;24.62;52.67;100529.97;5091254;28;20138;-37
2022/08/17 00:18:40;;;;;;;0.10;0.10;;;;;;;24.61;52.62;100525.53;5110822;28;20078;-36
2022/08/17 00:21:26;;;;;;;0.10;0.10;;;;;;;24.61;52.55;100525.53;5093481;28;20040;-36
2022/08/17 00:24:12;;;;;;;0.10;0.10;;;;;;;24.60;52.68;100527.50;5094206;28;20047;-36
2022/08/17 00:26:38;;;;;;;0.10;0.10;;;;;;;24.60;52.66;100524.72;5092600;28;20506;-37
2022/08/17 00:29:10;;;;;;;0.10;0.10;;;;;;;24.61;52.63;100529.16;5110306;28;20048;-38
2022/08/17 00:31:45;;;;;;;0.10;0.10;;;;;;;24.61;52.61;100526.38;5109805;28;20070;-37
2022/08/17 00:34:10;;;;;;;0.10;0.10;;;;;;;24.61;52.68;100528.31;5109893;28;20454;-36
2022/08/17 00:36:36;;;;;;;0.10;0.10;;;;;;;24.61;52.68;100523.59;5109832;28;20394;-36
2022/08/17 00:39:03;;;;;;;0.10;0.10;;;;;;;24.61;52.63;100526.38;5091818;28;20050;-37
2022/08/17 00:41:29;;;;;;;0.10;0.10;;;;;;;24.61;52.61;100526.38;5092033;28;20184;-36
2022/08/17 00:43:59;;;;;;;0.10;0.10;;;;;;;24.60;52.52;100523.91;5106306;28;20055;-37
2022/08/17 00:46:31;;;;;;;0.10;0.10;;;;;;;24.61;52.72;100523.59;5090648;28;20074;-36
2022/08/17 00:48:57;;;;;;;0.10;0.10;;;;;;;24.60;52.65;100519.16;5091266;28;20479;-36
2022/08/17 00:51:49;;;;;;;0.10;0.10;;;;;;;24.60;52.64;100516.38;5108615;28;20071;-37
2022/08/17 00:54:22;;;;;;;0.10;0.10;;;;;;;24.60;52.60;100509.97;5094844;28;20138;-36
2022/08/17 00:56:51;;;;;;;0.10;0.10;;;;;;;24.59;52.70;100511.94;5091780;28;20075;-37
2022/08/17 00:59:21;;;;;;;0.10;0.10;;;;;;;24.60;52.68;100510.78;5075146;28;20101;-36
2022/08/17 01:01:48;;;;;;;0.10;0.10;;;;;;;24.60;52.56;100504.41;5090026;28;20078;-37
2022/08/17 01:04:15;;;;;;;0.10;0.10;;;;;;;24.60;52.53;100505.22;5108634;28;20135;-37
2022/08/17 01:06:41;;;;;;;0.10;0.10;;;;;;;24.61;52.63;100511.59;5109177;28;20509;-36
2022/08/17 01:09:07;;;;;;;0.10;0.10;;;;;;;24.59;52.61;100498.03;5109968;28;20058;-38
2022/08/17 01:11:36;;;;;;;0.10;0.10;;;;;;;24.59;52.66;100500.00;5110473;28;20036;-38
2022/08/17 01:14:02;;;;;;;0.10;0.10;;;;;;;24.60;52.65;100496.88;5110060;28;20079;-36
2022/08/17 01:16:29;;;;;;;0.10;0.10;;;;;;;24.59;52.55;100497.22;5111171;28;20495;-36
2022/08/17 01:18:59;;;;;;;0.10;0.10;;;;;;;24.59;52.71;100498.03;5092673;28;20075;-37
2022/08/17 01:21:31;;;;;;;0.10;0.10;;;;;;;24.59;52.50;100500.81;5110160;28;20530;-36
2022/08/17 01:23:57;;;;;;;0.10;0.10;;;;;;;24.60;52.72;100505.22;5109409;28;20120;-37
2022/08/17 01:26:23;;;;;;;0.10;0.10;;;;;;;24.59;52.63;100502.78;5108623;28;20138;-38
2022/08/17 01:28:49;;;;;;;0.10;0.10;;;;;;;24.59;52.69;100509.16;5110355;28;20392;-37
2022/08/17 01:31:23;;;;;;;0.10;0.10;;;;;;;24.60;52.60;100513.56;5107368;28;20048;-37
2022/08/17 01:33:48;;;;;;;0.00;0.00;;;;;;;24.60;52.62;100507.19;5093205;28;20067;-37
2022/08/17 01:36:14;;;;;;;0.10;0.10;;;;;;;24.58;52.64;100501.97;5110046;28;20070;-36
2022/08/17 01:38:40;;;;;;;0.00;0.00;;;;;;;24.59;52.62;100500.00;5106419;28;20097;-36
2022/08/17 01:41:10;;;;;;;0.10;0.10;;;;;;;24.59;52.64;100502.78;5109249;28;20039;-37
2022/08/17 01:43:43;;;;;;;0.10;0.10;;;;;;;24.59;52.67;100494.44;5091456;28;20070;-37
2022/08/17 01:46:08;;;;;;;0.10;0.10;;;;;;;24.59;52.59;100494.44;5107598;28;20048;-37
2022/08/17 01:48:36;;;;;;;0.10;0.10;;;;;;;24.59;52.68;100500.00;5089111;28;20142;-37
2022/08/17 01:51:06;;;;;;;0.10;0.10;;;;;;;24.59;52.63;100500.00;5109515;28;20090;-37
2022/08/17 01:53:35;;;;;;;0.10;0.10;;;;;;;24.59;52.72;100497.22;5105674;28;20094;-36
2022/08/17 01:56:05;;;;;;;0.10;0.10;;;;;;;24.58;52.65;100501.97;5073359;28;20135;-37
2022/08/17 01:58:33;;;;;;;0.10;0.10;;;;;;;24.58;52.72;100501.97;5074849;28;20082;-37
2022/08/17 02:00:59;;;;;;;0.00;0.00;;;;;;;24.58;52.66;100490.81;5077461;28;20066;-36
2022/08/17 02:03:27;;;;;;;0.00;0.00;;;;;;;24.59;52.62;100502.78;5089868;28;20059;-37
2022/08/17 02:05:53;;;;;;;0.10;0.10;;;;;;;24.58;52.71;100496.41;5109036;28;20474;-37
2022/08/17 02:08:20;;;;;;;0.10;0.10;;;;;;;24.57;52.55;100491.97;5109031;28;20036;-37
2022/08/17 02:11:04;;;;;;;0.00;0.00;;;;;;;24.57;52.62;100491.97;5092358;28;20113;-36
2022/08/17 02:13:36;;;;;;;0.10;0.10;;;;;;;24.57;52.64;100497.56;5107226;28;20043;-37
2022/08/17 02:16:02;;;;;;;0.10;0.10;;;;;;;24.58;52.63;100493.63;5108320;28;20510;-37
2022/08/17 02:18:29;;;;;;;0.10;0.10;;;;;;;24.58;52.76;100495.59;5091312;28;20040;-36
2022/08/17 02:20:55;;;;;;;0.10;0.10;;;;;;;24.58;52.66;100501.16;5109753;28;20139;-36
2022/08/17 02:23:22;;;;;;;0.10;0.10;;;;;;;24.57;52.67;100494.75;5091147;28;20079;-37
2022/08/17 02:25:47;;;;;;;0.10;0.10;;;;;;;24.58;52.71;100492.81;5108742;28;20116;-37
2022/08/17 02:28:14;;;;;;;0.10;0.10;;;;;;;24.58;52.68;100495.59;5108733;28;20109;-37
2022/08/17 02:30:41;;;;;;;0.10;0.10;;;;;;;24.58;52.72;100498.38;5089418;28;20082;-36
2022/08/17 02:33:25;;;;;;;0.10;0.10;;;;;;;24.58;52.79;100501.16;5093376;28;20134;-37
2022/08/17 02:36:10;;;;;;;0.00;0.00;;;;;;;24.57;52.58;100502.28;5105688;28;20048;-37
2022/08/17 02:38:36;;;;;;;0.10;0.10;;;;;;;24.57;52.60;100502.28;5111160;28;20115;-37
2022/08/17 02:41:02;;;;;;;0.08;0.08;;;;;;;24.57;52.67;100500.34;5113692;28;20078;-36
2022/08/17 02:43:28;;;;;;;0.10;0.10;;;;;;;24.57;52.58;100496.72;5093124;28;20063;-37
2022/08/17 02:45:54;;;;;;;0.10;0.10;;;;;;;24.57;52.59;100502.28;5109888;28;20046;-37
2022/08/17 02:48:20;;;;;;;0.10;0.10;;;;;;;24.57;52.68;100494.75;5091033;28;20082;-36
2022/08/17 02:50:56;;;;;;;0.10;0.10;;;;;;;24.58;52.68;100487.22;5094440;28;20040;-36
2022/08/17 02:53:22;;;;;;;0.10;0.10;;;;;;;24.56;52.56;100497.84;5112437;28;20071;-37
2022/08/17 02:55:48;;;;;;;0.10;0.10;;;;;;;24.57;52.61;100491.13;5111118;28;20229;-36
2022/08/17 02:58:13;;;;;;;0.10;0.10;;;;;;;24.56;52.69;100498.66;5112241;28;20139;-36
2022/08/17 03:00:42;;;;;;;0.10;0.10;;;;;;;24.56;52.60;100490.31;5093169;28;20069;-36
2022/08/17 03:03:09;;;;;;;0.10;0.10;;;;;;;24.57;52.52;100497.56;5112418;28;20442;-36
2022/08/17 03:05:37;;;;;;;0.00;0.00;;;;;;;24.56;52.65;100498.66;5110564;28;20100;-37
2022/08/17 03:08:04;;;;;;;0.10;0.10;;;;;;;24.56;52.68;100490.31;5094147;28;20078;-36
2022/08/17 03:10:29;;;;;;;0.10;0.10;;;;;;;24.56;52.61;100483.94;5110446;28;20323;-36
2022/08/17 03:12:55;;;;;;;0.10;0.10;;;;;;;24.56;52.64;100493.09;5110399;28;20156;-36
2022/08/17 03:15:24;;;;;;;0.10;0.10;;;;;;;24.56;52.67;100483.94;5111342;28;20039;-36
2022/08/17 03:17:51;;;;;;;0.10;0.10;;;;;;;24.56;52.73;100484.75;5092774;28;20503;-36
2022/08/17 03:20:18;;;;;;;0.10;0.10;;;;;;;24.56;52.61;100483.94;5112358;28;20067;-37
2022/08/17 03:22:46;;;;;;;0.10;0.10;;;;;;;24.55;52.76;100483.13;5093993;28;20085;-37
2022/08/17 03:25:23;;;;;;;0.10;0.10;;;;;;;24.56;52.68;100483.94;5094981;28;20051;-36
2022/08/17 03:27:49;;;;;;;0.10;0.10;;;;;;;24.56;52.58;100483.94;5110782;28;20067;-36
2022/08/17 03:30:16;;;;;;;0.10;0.10;;;;;;;24.55;52.62;100480.34;5111856;28;20462;-36
2022/08/17 03:32:45;;;;;;;0.10;0.10;;;;;;;24.56;52.62;100478.38;5092564;28;20054;-36
2022/08/17 03:35:11;;;;;;;;;;;;;;;24.54;52.68;100473.13;5093752;28;20151;-36
2022/08/17 03:37:38;;;;;;;0.10;0.10;;;;;;;24.54;52.62;100475.94;5107808;28;19927;-36
2022/08/17 03:40:06;;;;;;;0.10;0.10;;;;;;;24.55;52.67;100480.34;5110631;28;20520;-36
2022/08/17 03:42:33;;;;;;;0.10;0.10;;;;;;;24.55;52.66;100480.34;5110291;28;20040;-37
2022/08/17 03:44:59;;;;;;;0.10;0.10;;;;;;;24.55;52.63;100471.19;5111773;28;20144;-36
2022/08/17 03:58:28;;;;;;;0.00;0.00;;;;;;;24.53;52.63;100486.25;5095451;28;20081;-36
2022/08/17 04:00:54;;;;;;;0.10;0.10;;;;;;;24.54;52.59;100495.41;5111520;28;20052;-36
2022/08/17 04:03:19;;;;;;;0.10;0.10;;;;;;;24.55;52.74;100488.69;5110749;28;20040;-37
2022/08/17 04:05:45;;;;;;;0.10;0.10;;;;;;;24.55;52.70;100496.22;5109485;28;20418;-37
2022/08/17 04:08:11;;;;;;;0.10;0.10;;;;;;;24.55;52.61;100499.81;5111510;28;20046;-36
2022/08/17 04:10:36;;;;;;;0.10;0.10;;;;;;;24.55;52.65;100496.22;5092215;28;20485;-36
2022/08/17 04:13:11;;;;;;;0.10;0.10;;;;;;;24.53;52.64;100494.59;5110496;28;20135;-36
2022/08/17 04:15:36;;;;;;;0.10;0.10;;;;;;;24.55;52.55;100496.22;5109781;28;20556;-37
2022/08/17 04:18:02;;;;;;;0.10;0.10;;;;;;;24.54;52.62;100495.41;5091649;28;20043;-37
2022/08/17 04:20:28;;;;;;;0.10;0.10;;;;;;;24.53;52.72;100491.81;5110739;28;20035;-36
2022/08/17 04:22:56;;;;;;;0.10;0.10;;;;;;;24.53;52.75;100493.78;5111668;28;20101;-38
2022/08/17 04:25:22;;;;;;;0.00;0.00;;;;;;;24.53;52.58;100497.38;5076311;28;20040;-37
2022/08/17 04:27:48;;;;;;;0.10;0.10;;;;;;;24.53;52.75;100502.13;5109756;28;20478;-36
2022/08/17 04:30:14;;;;;;;0.10;0.10;;;;;;;24.53;52.72;100505.72;5110819;28;20040;-37
2022/08/17 04:32:58;;;;;;;0.10;0.10;;;;;;;24.53;52.68;100513.28;5108258;28;20126;-36
2022/08/17 04:35:36;;;;;;;0.10;0.10;;;;;;;24.52;52.69;100512.44;5093437;28;20047;-36
2022/08/17 04:38:02;;;;;;;0.10;0.10;;;;;;;24.54;52.54;100512.13;5092509;28;20139;-37
2022/08/17 04:43:17;;;;;;;0.10;0.10;;;;;;;24.53;52.67;100519.66;5095286;28;20143;-36
2022/08/17 04:45:48;;;;;;;0.00;0.00;;;;;;;24.53;52.70;100519.66;5107690;28;20093;-36
2022/08/17 04:48:21;;;;;;;0.10;0.10;;;;;;;24.53;52.63;100524.41;5094044;28;20043;-37
2022/08/17 04:50:48;;;;;;;0.10;0.10;;;;;;;24.53;52.58;100518.84;5110096;28;20044;-36
2022/08/17 04:53:15;;;;;;;0.10;0.10;;;;;;;24.53;52.61;100516.06;5109392;28;20044;-37
2022/08/17 04:55:41;;;;;;;0.08;0.08;;;;;;;24.52;52.62;100526.38;5109284;28;20466;-36
2022/08/17 04:58:06;;;;;;;0.10;0.10;;;;;;;24.52;52.78;100522.75;5110356;28;20093;-37
2022/08/17 05:00:33;;;;;;;0.10;0.10;;;;;;;24.52;52.74;100529.16;5109025;28;20055;-36
2022/08/17 05:02:59;;;;;;;0.10;0.10;;;;;;;24.53;52.63;100525.22;5088840;28;20079;-36
2022/08/17 05:05:28;;;;;;;0.10;0.10;;;;;;;24.52;52.67;100520.81;5089335;28;20113;-36
2022/08/17 05:08:00;;;;;;;0.10;0.10;;;;;;;24.53;52.68;100516.06;5089086;28;20604;-36
2022/08/17 05:10:28;;;;;;;0.00;0.00;;;;;;;24.53;52.60;100513.28;5108102;28;20135;-36
2022/08/17 05:12:58;;;;;;;;;;;;;;;24.53;52.49;100511.31;5106153;28;20458;-36
2022/08/17 05:15:23;;;;;;;0.10;0.10;;;;;;;24.52;52.56;100511.59;5105867;28;19959;-37
2022/08/17 05:17:49;;;;;;;0.10;0.10;;;;;;;24.51;52.48;100515.53;5107881;28;20475;-37
2022/08/17 05:20:15;;;;;;;0.10;0.10;;;;;;;24.51;52.61;100516.34;5110093;28;20051;-36
2022/08/17 05:22:49;;;;;;;0.10;0.10;;;;;;;24.53;52.45;100513.28;5109984;28;20055;-38
2022/08/17 05:25:21;;;;;;;0.00;0.00;;;;;;;24.52;52.48;100517.19;5103204;28;20070;-37
2022/08/17 05:27:52;;;;;;;0.10;0.10;;;;;;;24.52;52.45;100519.97;5073057;28;20088;-37
2022/08/17 05:30:17;;;;;;;0.10;0.10;;;;;;;24.50;52.56;100509.16;5105695;28;20131;-37
2022/08/17 05:33:04;;;;;;;0.10;0.10;;;;;;;24.51;52.57;100509.97;5089182;28;20039;-36
2022/08/17 05:35:33;;;;;;;0.10;0.10;;;;;;;24.52;52.56;100517.19;5089843;28;20489;-38
2022/08/17 05:37:59;;;;;;;0.10;0.10;;;;;;;24.50;52.58;100531.44;5088560;28;20083;-38
2022/08/17 05:40:25;;;;;;;0.10;0.10;;;;;;;24.55;51.92;100568.59;5088595;28;20062;-36
2022/08/17 05:43:15;;;;;;;0.35;0.35;;;;;;;24.56;51.97;100573.03;5106772;28;20055;-36
2022/08/17 05:48:25;;;;;;;0.20;0.10;;;;;;;24.55;52.02;100575.00;5171036;27;20124;-35
2022/08/17 05:51:19;;;;;;;0.10;0.10;;;;;;;24.48;50.74;100552.38;5160119;27;20073;-39
2022/08/17 05:53:56;;;;;;;0.10;0.10;;;;;;;24.55;51.39;100566.63;5145199;27;20088;-37
2022/08/17 05:56:44;;;;;;;0.20;0.20;;;;;;;24.58;51.79;100568.78;5139429;27;20087;-37
2022/08/17 05:59:49;;;;;;;0.10;0.10;;;;;;;24.52;51.41;100568.13;5151300;27;20384;-47
2022/08/17 06:02:39;;;;;;;0.10;0.10;;;;;;;24.58;51.61;100563.22;5130018;27;20046;-37
2022/08/17 06:05:35;;;;;;;0.10;0.10;;;;;;;24.60;51.78;100572.03;5136647;27;20043;-38
2022/08/17 06:08:31;;;;;;;0.10;0.10;;;;;;;24.60;51.90;100557.31;5147548;27;20133;-37
2022/08/17 06:11:13;;;;;;;0.10;0.10;;;;;;;24.62;51.50;100568.97;5121650;27;20509;-36
2022/08/17 06:14:06;;;;;;;0.10;0.10;;;;;;;24.62;51.34;100571.75;5140520;27;20173;-36
2022/08/17 06:16:35;;;;;;;0.10;0.10;;;;;;;24.61;51.89;100576.50;5132450;27;20129;-37
2022/08/17 06:19:05;;;;;;;0.10;0.10;;;;;;;24.62;51.84;100577.31;5136879;27;20125;-37
2022/08/17 06:21:35;;;;;;;0.10;0.10;;;;;;;24.64;51.59;100575.00;5133634;27;20129;-37
2022/08/17 06:24:06;;;;;;;0.10;0.10;;;;;;;24.62;52.03;100566.97;5158422;27;20046;-37
2022/08/17 06:26:35;;;;;;;0.10;0.10;;;;;;;24.63;51.31;100565.84;5161321;27;20133;-38
2022/08/17 06:29:44;;;;;;;0.10;0.10;;;;;;;24.63;51.47;100568.63;5138803;27;20058;-38
2022/08/17 06:32:11;;;;;;;0.10;0.10;;;;;;;24.63;51.26;100560.25;5146332;27;20130;-39
2022/08/17 06:34:38;;;;;;;0.10;0.10;;;;;;;24.63;50.90;100568.63;5160551;27;20043;-37
2022/08/17 06:37:28;;;;;;;0.10;0.10;;;;;;;24.64;51.14;100570.25;5158515;27;20074;-38
2022/08/17 06:40:33;;;;;;;0.13;0.10;;;;;;;24.64;51.81;100570.25;5140346;27;20549;-37
2022/08/17 06:43:38;;;;;;;0.10;0.10;;;;;;;24.64;50.99;100573.03;5128653;27;21179;-36
2022/08/17 06:46:10;;;;;;;0.10;0.10;;;;;;;24.66;50.90;100576.31;5135242;27;20078;-36
2022/08/17 06:48:41;;;;;;;0.10;0.10;;;;;;;24.66;50.86;100575.50;5154275;27;20096;-37
2022/08/17 06:54:32;;;;;;;0.00;0.00;;;;;;;24.72;50.92;100588.94;5153509;27;20474;-35
2022/08/17 06:59:48;;;;;;;0.10;0.10;;;;;;;24.71;51.42;100594.84;5151571;27;20120;-35
2022/08/17 07:02:35;;;;;;;0.10;0.10;;;;;;;24.73;51.49;100598.09;5113475;27;20043;-39
2022/08/17 07:05:20;;;;;;;0.10;0.10;;;;;;;24.72;51.32;100600.06;5109807;27;20143;-37
2022/08/17 07:08:06;;;;;;;0.10;0.10;;;;;;;24.69;50.86;100606.28;5106291;27;20317;-36
2022/08/17 07:10:40;;;;;;;0.03;0.03;;;;;;;24.71;51.13;100605.97;5118204;27;20130;-37
2022/08/17 07:13:29;;;;;;;0.10;0.10;;;;;;;24.73;51.33;100606.44;5131831;27;20139;-39
2022/08/17 07:16:03;;;;;;;0.10;0.10;;;;;;;24.75;51.29;100601.41;5113798;27;20039;-37
2022/08/17 07:18:31;;;;;;;0.25;0.25;;;;;;;24.74;51.29;100610.88;5114127;27;20080;-37
2022/08/17 07:21:06;;;;;;;0.10;0.10;;;;;;;24.73;51.26;100617.59;5132995;27;20150;-37
2022/08/17 07:23:43;;;;;;;0.35;0.15;;;;;;;24.73;51.30;100620.38;5131399;27;20130;-37
2022/08/17 07:26:09;;;;;;;0.10;0.10;;;;;;;24.72;51.38;100625.13;5134060;27;20171;-37
2022/08/17 07:28:35;;;;;;;0.10;0.10;;;;;;;24.73;51.26;100620.38;5133989;27;20054;-37
2022/08/17 07:31:03;;;;;;;0.00;0.00;;;;;;;24.72;50.76;100611.22;5127530;27;20572;-42
2022/08/17 07:33:29;;;;;;;;;;;;;;;24.75;51.14;100613.34;5130222;27;20085;-37
2022/08/17 07:35:56;;;;;;;0.10;0.10;;;;;;;24.76;51.12;100605.81;5108028;27;20010;-37
2022/08/17 07:38:27;;;;;;;0.10;0.10;;;;;;;24.79;51.13;100607.94;5126796;27;20126;-35
2022/08/17 07:43:34;;;;;;;0.10;0.10;;;;;;;24.77;51.23;100601.88;5142445;27;20213;-33
2022/08/17 07:57:16;;;;;;;0.00;0.00;;;;;;;24.81;51.44;100615.97;5157197;27;20112;-33
2022/08/17 08:00:04;;;;;;;0.05;0.05;;;;;;;24.78;51.62;100629.41;5140597;27;21113;-33
2022/08/17 08:02:40;;;;;;;0.10;0.10;;;;;;;24.80;51.56;100637.44;5120010;27;20051;-36
2022/08/17 08:05:24;;;;;;;0.10;0.10;;;;;;;24.81;51.53;100643.81;5141127;27;20043;-36
2022/08/17 08:08:24;;;;;;;0.10;0.10;;;;;;;24.81;51.69;100646.59;5117230;27;20099;-35
2022/08/17 08:10:58;;;;;;;0.10;0.10;;;;;;;24.83;51.80;100647.09;5090707;27;20127;-35
2022/08/17 08:13:28;;;;;;;0.10;0.10;;;;;;;24.79;51.97;100635.81;5119488;27;20797;-35
2022/08/17 08:16:10;;;;;;;0.10;0.10;;;;;;;24.77;51.95;100638.88;5122442;27;20126;-36
2022/08/17 08:18:42;;;;;;;0.10;0.10;;;;;;;24.78;52.10;100646.13;5134307;27;20479;-35
2022/08/17 08:24:29;;;;;;;0.10;0.10;;;;;;;24.78;52.01;100654.47;5169979;27;20125;-33
2022/08/17 08:27:26;;;;;;;0.10;0.10;;;;;;;24.78;52.09;100651.69;5119141;27;20044;-33
2022/08/17 08:32:52;;;;;;;0.00;0.00;;;;;;;24.80;52.08;100645.78;5157716;27;20129;-33
2022/08/17 08:35:28;;;;;;;0.10;0.10;;;;;;;24.82;52.11;100660.19;5132717;27;20176;-33
2022/08/17 08:38:22;;;;;;;0.10;0.10;;;;;;;24.76;52.10;100658.72;5149116;27;20154;-36
2022/08/17 08:41:28;;;;;;;0.10;0.10;;;;;;;24.84;51.93;100663.50;5130706;27;20129;-36
2022/08/17 08:44:05;;;;;;;0.10;0.10;;;;;;;24.82;51.75;100665.75;5134345;27;20082;-36
2022/08/17 08:46:57;;;;;;;0.10;0.10;;;;;;;24.84;52.14;100655.13;5130235;27;20129;-36
2022/08/17 08:49:50;;;;;;;0.13;0.13;;;;;;;24.84;52.06;100657.91;5138019;27;20560;-35
2022/08/17 08:52:41;;;;;;;0.10;0.10;;;;;;;24.84;52.01;100655.13;5151383;27;20868;-36
2022/08/17 08:55:15;;;;;;;0.10;0.10;;;;;;;24.84;51.97;100652.34;5154320;27;20082;-36
2022/08/17 08:57:47;;;;;;;0.10;0.10;;;;;;;24.84;51.83;100657.91;5140360;27;20138;-36
2022/08/17 09:00:16;;;;;;;0.10;0.10;;;;;;;24.85;52.02;100661.53;5153574;27;20134;-35
2022/08/17 09:03:21;;;;;;;0.10;0.10;;;;;;;24.85;51.94;100653.97;5133347;27;20142;-36
2022/08/17 09:06:21;;;;;;;0.10;0.10;;;;;;;24.84;51.97;100655.13;5115479;27;20065;-36
2022/08/17 09:09:23;;;;;;;0.10;0.10;;;;;;;24.86;52.05;100655.59;5142576;27;20050;-36
2022/08/17 09:12:00;;;;;;;0.10;0.10;;;;;;;24.87;52.17;100653.63;5157147;27;20157;-35
2022/08/17 09:14:38;;;;;;;0.10;0.10;;;;;;;24.86;51.87;100647.25;5153944;27;20050;-36
2022/08/17 09:17:27;;;;;;;0.13;0.10;;;;;;;24.88;52.04;100658.09;5136197;27;20167;-36
2022/08/17 09:19:59;;;;;;;0.10;0.10;;;;;;;24.87;52.18;100651.69;5149811;27;20043;-35
2022/08/17 09:22:33;;;;;;;0.10;0.10;;;;;;;24.88;51.88;100655.31;5120651;27;20077;-36
2022/08/17 09:25:13;;;;;;;0.20;0.20;;;;;;;24.89;51.97;100649.41;5154868;27;20130;-35
2022/08/17 09:27:56;;;;;;;0.10;0.10;;;;;;;24.89;51.86;100660.53;5137534;27;20130;-35
2022/08/17 09:30:28;;;;;;;0.10;0.10;;;;;;;24.89;51.84;100654.97;5134458;27;20400;-36
2022/08/17 09:32:58;;;;;;;0.10;0.10;;;;;;;24.90;51.91;100651.03;5120688;27;20108;-35
2022/08/17 09:35:33;;;;;;;0.10;0.10;;;;;;;24.89;52.08;100656.94;5151060;27;20049;-36
2022/08/17 09:38:41;;;;;;;0.10;0.10;;;;;;;24.90;52.21;100662.16;5130029;27;20055;-35
2022/08/17 09:41:17;;;;;;;0.10;0.10;;;;;;;24.91;52.15;100676.91;5132551;27;20092;-35
2022/08/17 09:43:49;;;;;;;0.10;0.10;;;;;;;24.91;52.17;100676.91;5135999;27;20075;-35
2022/08/17 09:46:37;;;;;;;0.10;0.10;;;;;;;24.91;52.20;100671.34;5110425;27;20468;-35
2022/08/17 09:49:13;;;;;;;0.00;0.00;;;;;;;24.92;52.24;100668.25;5104242;27;20051;-35
2022/08/17 09:51:44;;;;;;;0.10;0.10;;;;;;;24.92;52.13;100671.03;5127573;27;20074;-36
2022/08/17 09:54:22;;;;;;;0.10;0.10;;;;;;;24.94;52.13;100677.09;5133250;27;20170;-35
2022/08/17 09:57:17;;;;;;;0.10;0.10;;;;;;;24.98;52.23;100666.94;5141440;27;22160;-37
2022/08/17 10:00:15;;;;;;;0.00;0.00;;;;;;;25.08;52.33;100673.31;5138517;27;20043;-36
2022/08/17 10:03:08;;;;;;;0.10;0.10;;;;;;;25.17;52.52;100666.66;5143416;27;20110;-38
2022/08/17 10:05:59;;;;;;;0.00;0.00;;;;;;;25.08;52.42;100678.91;5125506;27;20125;-38
2022/08/17 10:08:51;;;;;;;0.10;0.10;;;;;;;25.03;52.55;100679.88;5127339;27;20047;-37
2022/08/17 10:14:04;;;;;;;0.10;0.10;;;;;;;24.99;52.77;100681.69;5162740;27;20628;-38
2022/08/17 10:16:55;;;;;;;0.10;0.10;;;;;;;24.99;52.59;100684.47;5125165;27;20066;-37
2022/08/17 10:28:00;;;;;;;0.10;0.10;;;;;;;24.99;52.71;100704.78;5125392;27;20039;-35
2022/08/17 10:30:30;;;;;;;0.00;0.00;;;;;;;24.97;52.71;100698.72;5137588;27;20046;-35
2022/08/17 10:32:59;;;;;;;0.10;0.10;;;;;;;24.97;52.68;100697.91;5117602;27;20134;-35
2022/08/17 10:35:37;;;;;;;0.10;0.10;;;;;;;24.99;52.62;100702.00;5124395;27;20070;-35
2022/08/17 10:38:32;;;;;;;0.00;0.00;;;;;;;24.99;52.75;100703.97;5148836;27;20156;-35
2022/08/17 10:41:13;;;;;;;0.10;0.10;;;;;;;25.00;52.66;100711.19;5128959;27;20103;-35
2022/08/17 10:44:12;;;;;;;0.10;0.10;;;;;;;24.84;54.06;100712.81;5133743;27;20078;-40
2022/08/17 10:47:16;;;;;;;0.10;0.10;;;;;;;24.95;53.22;100714.13;5111004;27;20065;-35
2022/08/17 10:49:48;;;;;;;0.10;0.10;;;;;;;24.98;53.15;100710.69;5121366;27;20636;-35
2022/08/17 10:52:43;;;;;;;0.10;0.10;;;;;;;24.99;53.29;100701.19;5122064;27;20126;-35
2022/08/17 10:55:16;;;;;;;0.10;0.10;;;;;;;24.98;52.96;100692.00;5125568;27;20636;-35
2022/08/17 10:57:45;;;;;;;0.00;0.00;;;;;;;25.00;53.03;100683.34;5123384;27;20134;-35
2022/08/17 11:03:19;;;;;;;0.10;0.10;;;;;;;24.86;55.05;100652.81;5149861;27;20211;-36
2022/08/17 11:05:57;;;;;;;0.10;0.10;;;;;;;24.95;54.58;100647.25;5129315;27;20464;-35
2022/08/17 11:08:56;;;;;;;0.10;0.10;;;;;;;24.99;54.09;100643.50;5153250;27;20074;-36
2022/08/17 11:11:46;;;;;;;0.00;0.00;;;;;;;25.00;54.06;100636.78;5134422;27;20074;-35
2022/08/17 11:14:24;;;;;;;0.10;0.10;;;;;;;25.01;53.81;100638.44;5121105;27;20070;-35
2022/08/17 11:17:05;;;;;;;0.10;0.10;;;;;;;25.03;53.96;100646.44;5149793;27;20387;-35
2022/08/17 11:19:54;;;;;;;0.10;0.10;;;;;;;25.02;54.23;100653.19;5153053;27;20074;-36
2022/08/17 11:22:42;;;;;;;0.10;0.10;;;;;;;25.03;54.17;100649.22;5139221;27;20039;-38
2022/08/17 11:25:13;;;;;;;0.10;0.10;;;;;;;25.03;54.04;100647.25;5149853;27;20169;-41
2022/08/17 11:27:40;;;;;;;0.10;0.10;;;;;;;25.04;53.74;100650.88;5137884;27;20789;-41
2022/08/17 11:30:10;;;;;;;0.00;0.00;;;;;;;25.05;54.09;100654.50;5150455;27;20078;-38
2022/08/17 11:32:48;;;;;;;0.10;0.10;;;;;;;25.05;53.70;100674.81;5131591;27;20135;-40
2022/08/17 11:38:24;;;;;;;0.00;0.00;;;;;;;25.03;53.37;100686.28;5149802;27;20201;-36
2022/08/17 11:41:19;;;;;;;0.10;0.10;;;;;;;25.01;54.92;100690.53;5139760;27;20078;-37
2022/08/17 11:43:55;;;;;;;0.25;0.10;;;;;;;25.04;54.73;100687.09;5127223;27;20129;-36
2022/08/17 11:51:32;;;;;;;0.10;0.10;;;;;;;25.06;54.67;100689.56;5139190;27;20066;-36
2022/08/17 11:52:33;;;;;;;0.10;0.10;;;;;;;25.07;54.67;100693.97;5123411;27;20074;-36
2022/08/17 11:54:59;;;;;;;0.10;0.10;;;;;;;25.07;54.58;100696.78;5119365;27;20070;-36
2022/08/17 11:57:54;;;;;;;0.10;0.10;;;;;;;25.06;55.07;100695.97;5122526;27;20051;-38
2022/08/17 12:00:48;;;;;;;0.10;0.10;;;;;;;25.07;54.70;100700.38;5128782;27;20433;-36
2022/08/17 12:03:25;;;;;;;0.10;0.10;;;;;;;25.09;54.41;100716.81;5123081;27;20271;-39
2022/08/17 12:06:00;;;;;;;0.10;0.10;;;;;;;25.08;54.72;100713.19;5141854;27;20051;-36
2022/08/17 12:08:29;;;;;;;0.10;0.10;;;;;;;25.07;54.77;100714.31;5142285;27;20067;-38
2022/08/17 12:11:15;;;;;;;0.10;0.10;;;;;;;25.07;54.85;100714.31;5142307;27;20509;-37
2022/08/17 12:13:44;;;;;;;0.10;0.10;;;;;;;25.08;54.76;100715.97;5123108;27;20173;-36
2022/08/17 12:16:19;;;;;;;0.10;0.10;;;;;;;25.09;54.68;100711.25;5141383;27;20122;-37
2022/08/17 12:18:57;;;;;;;0.10;0.10;;;;;;;25.09;54.72;100714.03;5119339;27;20181;-37
2022/08/17 12:21:49;;;;;;;0.10;0.10;;;;;;;25.09;54.56;100726.00;5121777;27;20089;-37
2022/08/17 12:24:38;;;;;;;0.10;0.10;;;;;;;25.10;54.60;100721.25;5124971;27;20481;-39
2022/08/17 12:27:05;;;;;;;0.10;0.10;;;;;;;25.10;54.45;100724.84;5122376;27;20078;-36
2022/08/17 12:29:33;;;;;;;0.10;0.10;;;;;;;25.11;54.61;100723.69;5121938;27;20078;-36
2022/08/17 12:32:05;;;;;;;0.10;0.10;;;;;;;25.11;54.52;100725.66;5104289;27;20034;-35
2022/08/17 12:34:36;;;;;;;0.10;0.10;;;;;;;25.11;54.54;100725.66;5118923;27;20092;-36
2022/08/17 12:37:06;;;;;;;0.05;0.05;;;;;;;25.09;53.91;100728.78;5134961;27;20058;-35
2022/08/17 12:39:32;;;;;;;0.10;0.10;;;;;;;25.10;54.43;100730.41;5116579;27;20185;-35
2022/08/17 12:41:59;;;;;;;0.10;0.10;;;;;;;25.09;53.73;100725.19;5138051;27;20099;-35
2022/08/17 12:44:32;;;;;;;0.10;0.10;;;;;;;25.10;54.20;100721.25;5139735;27;20298;-36
2022/08/17 12:47:08;;;;;;;0.10;0.10;;;;;;;25.08;53.66;100723.47;5140490;27;20104;-36
2022/08/17 12:49:37;;;;;;;0.10;0.10;;;;;;;25.10;54.67;100724.84;5129246;28;20142;-36
2022/08/17 12:52:14;;;;;;;0.10;0.10;;;;;;;25.10;54.27;100729.59;5132026;28;20198;-35
2022/08/17 12:55:00;;;;;;;;;;;;;;;25.10;54.17;100726.81;5111394;28;20126;-38
2022/08/17 12:57:32;;;;;;;0.10;0.10;;;;;;;25.09;54.62;100719.59;5112496;28;20030;-35
2022/08/17 13:00:07;;;;;;;0.10;0.10;;;;;;;25.09;54.26;100716.81;5094919;28;20159;-37
2022/08/17 13:02:50;;;;;;;0.10;0.10;;;;;;;25.10;53.94;100716.47;5110452;28;20133;-36
2022/08/17 13:05:35;;;;;;;0.10;0.10;;;;;;;25.08;53.61;100713.19;5132464;27;20067;-37